Daisinmaru No.11 — JK5352 — position and weather

sailwx.info

Track history (hours):
 
Tides and Currents Weather Stations Pressure Air Temp Water Temp Dewpoint Dewpoint Depression Visibility Wind Speed Wind Dir Waves Ship Positions

Daisinmaru No.11

Last reported at 2017-Jan-18 05:34 UTC. Time now 2017-Jan-18 05:59 UTC.
Position N 35°29' E 139°43'.

Length 52 m; draft 5.2 m.

Type: Cargo ship. MMSI: 431000667.

Date/timePositionNaut miles runAvg speedWind from/ knotsBaromVisibWave heightAir tempDewpointWater temp
2017-Jan-18 05:34N 35°29' E 139°43'0 0.0
2017-Jan-18 04:33N 35°29' E 139°43'0 0.0
2017-Jan-18 03:34N 35°29' E 139°43'0 0.0
2017-Jan-18 02:34N 35°29' E 139°43'9 8.9
2017-Jan-18 01:34N 35°29' E 139°54'2 0.1
2017-Jan-17 08:33N 35°30' E 139°52'7 7.3
2017-Jan-17 07:34N 35°29' E 139°43'0 0.0
2017-Jan-17 06:34N 35°29' E 139°43'0 0.1
2017-Jan-17 05:34N 35°29' E 139°43'0 0.0
2017-Jan-17 04:34N 35°29' E 139°43'9 8.5
2017-Jan-17 03:34N 35°29' E 139°53'4 0.2
2017-Jan-16 07:06N 35°29' E 139°58'5 9.7
2017-Jan-16 06:33N 35°30' E 139°51'7 6.9
2017-Jan-16 05:33N 35°29' E 139°43'0 0.0
2017-Jan-16 04:33N 35°29' E 139°43'0 0.0
2017-Jan-16 03:33N 35°29' E 139°43'0 0.1
2017-Jan-16 02:34N 35°29' E 139°43'9 9.0
2017-Jan-16 01:33N 35°29' E 139°54'3 0.1
2017-Jan-14 07:28N 35°29' E 139°58'9 9.5
2017-Jan-14 06:33N 35°30' E 139°48'4 4.1
2017-Jan-14 05:34N 35°29' E 139°43'0 0.0
2017-Jan-14 04:34N 35°29' E 139°43'0 0.0
2017-Jan-14 03:34N 35°29' E 139°43'11 0.5
2017-Jan-13 07:25N 35°29' E 139°56'8 9.8
2017-Jan-13 06:33N 35°30' E 139°46'3 2.6
2017-Jan-13 05:33N 35°29' E 139°43'0 0.0
2017-Jan-13 04:33N 35°29' E 139°43'0 0.0
2017-Jan-13 03:33N 35°29' E 139°43'4 4.2
2017-Jan-13 02:33N 35°30' E 139°48'2 0.1
2017-Jan-12 03:24N 35°30' E 139°46'3 3.3
2017-Jan-12 02:33N 35°29' E 139°43'0 0.0
2017-Jan-12 01:33N 35°29' E 139°43'1 1.3
2017-Jan-12 00:33N 35°30' E 139°44'11 9.8
2017-Jan-11 23:27N 35°29' E 139°57'3 0.2
2017-Jan-11 07:31N 35°29' E 139°54'9 9.0
2017-Jan-11 06:33N 35°29' E 139°43'0 0.3
2017-Jan-11 05:33N 35°29' E 139°43'0 0.0
2017-Jan-11 04:33N 35°29' E 139°43'0 0.0
2017-Jan-11 03:33N 35°29' E 139°43'0 0.1
2017-Jan-11 02:34N 35°29' E 139°43'9 9.1
2017-Jan-11 01:33N 35°29' E 139°54'2 0.1
2017-Jan-10 07:33N 35°29' E 139°56'9 9.2
2017-Jan-10 06:33N 35°30' E 139°45'2 2.2
2017-Jan-10 05:33N 35°29' E 139°43'0 0.0
2017-Jan-10 04:33N 35°29' E 139°43'0 0.0
2017-Jan-10 03:33N 35°29' E 139°43'3 3.3
2017-Jan-10 02:33N 35°30' E 139°47'  
Track history (hours):
 
Tides and Currents Weather Stations Pressure Air Temp Water Temp Dewpoint Dewpoint Depression Visibility Wind Speed Wind Dir Waves Ship Positions

Daisinmaru No.11

Last reported at 2017-Jan-18 05:34 UTC. Time now 2017-Jan-18 05:59 UTC.
Position N 35°29' E 139°43'.

Length 52 m; draft 5.2 m.

Type: Cargo ship. MMSI: 431000667.

Date/timePositionNaut miles runAvg speedWind from/ knotsBaromVisibWave heightAir tempDewpointWater temp
2017-Jan-18 05:34N 35°29' E 139°43'0 0.0
2017-Jan-18 04:33N 35°29' E 139°43'0 0.0
2017-Jan-18 03:34N 35°29' E 139°43'0 0.0
2017-Jan-18 02:34N 35°29' E 139°43'9 8.9
2017-Jan-18 01:34N 35°29' E 139°54'2 0.1
2017-Jan-17 08:33N 35°30' E 139°52'7 7.3
2017-Jan-17 07:34N 35°29' E 139°43'0 0.0
2017-Jan-17 06:34N 35°29' E 139°43'0 0.1
2017-Jan-17 05:34N 35°29' E 139°43'0 0.0
2017-Jan-17 04:34N 35°29' E 139°43'9 8.5
2017-Jan-17 03:34N 35°29' E 139°53'4 0.2
2017-Jan-16 07:06N 35°29' E 139°58'5 9.7
2017-Jan-16 06:33N 35°30' E 139°51'7 6.9
2017-Jan-16 05:33N 35°29' E 139°43'0 0.0
2017-Jan-16 04:33N 35°29' E 139°43'0 0.0
2017-Jan-16 03:33N 35°29' E 139°43'0 0.1
2017-Jan-16 02:34N 35°29' E 139°43'9 9.0
2017-Jan-16 01:33N 35°29' E 139°54'3 0.1
2017-Jan-14 07:28N 35°29' E 139°58'9 9.5
2017-Jan-14 06:33N 35°30' E 139°48'4 4.1
2017-Jan-14 05:34N 35°29' E 139°43'0 0.0
2017-Jan-14 04:34N 35°29' E 139°43'0 0.0
2017-Jan-14 03:34N 35°29' E 139°43'11 0.5
2017-Jan-13 07:25N 35°29' E 139°56'8 9.8
2017-Jan-13 06:33N 35°30' E 139°46'3 2.6
2017-Jan-13 05:33N 35°29' E 139°43'0 0.0
2017-Jan-13 04:33N 35°29' E 139°43'0 0.0
2017-Jan-13 03:33N 35°29' E 139°43'4 4.2
2017-Jan-13 02:33N 35°30' E 139°48'2 0.1
2017-Jan-12 03:24N 35°30' E 139°46'3 3.3
2017-Jan-12 02:33N 35°29' E 139°43'0 0.0
2017-Jan-12 01:33N 35°29' E 139°43'1 1.3
2017-Jan-12 00:33N 35°30' E 139°44'11 9.8
2017-Jan-11 23:27N 35°29' E 139°57'3 0.2
2017-Jan-11 07:31N 35°29' E 139°54'9 9.0
2017-Jan-11 06:33N 35°29' E 139°43'0 0.3
2017-Jan-11 05:33N 35°29' E 139°43'0 0.0
2017-Jan-11 04:33N 35°29' E 139°43'0 0.0
2017-Jan-11 03:33N 35°29' E 139°43'0 0.1
2017-Jan-11 02:34N 35°29' E 139°43'9 9.1
2017-Jan-11 01:33N 35°29' E 139°54'2 0.1
2017-Jan-10 07:33N 35°29' E 139°56'9 9.2
2017-Jan-10 06:33N 35°30' E 139°45'2 2.2
2017-Jan-10 05:33N 35°29' E 139°43'0 0.0
2017-Jan-10 04:33N 35°29' E 139°43'0 0.0
2017-Jan-10 03:33N 35°29' E 139°43'3 3.3
2017-Jan-10 02:33N 35°30' E 139°47'  

Dump ship's entire track history